Sango, Tennessee
Current Conditions -  °F | °C
As of 4:52 PM on Thursday 27 Nov 2014 (Local Time) from KCKV Reporting Station
Overcast Overcast  
Wind Chill: 26°   Ceiling: 3400
Heat Index: 32°   Visibility: 10mi
Dew Point: 22°   Wind: 7mph
Humidity: 66%   Direction: 320°NW
Pressure: 30.47"   Gusts: NA
Location:  36.5714°N, 87.4224°W
Report Text: KCKV 272252Z AUTO 32006KT 10SM OVC034 00/M06 A3047 RMK AO2 SLP322 T00001056
Loading
Personal Weather Stations






























Interactive Weather Map New forecast layout! Learn more

10-Day Weather Forecast

Advertisements
Track Severe Weather on mobile